ENSK

Stokmarknes Skagen Airport

Hadsel, Norway
METAR ENSK 191950Z 19020KT 9999 VCSH FEW012 SCT025 14/07 Q0993
Observed Flight Rules
Sep-19 @ 19:50 UTC (3 hours ago) Visual Flight Rules
Wind Visibility Clouds
190° at 20 knots 10,000+ meters
  • Few at 1,200' AGL
  • Scattered at 2,500' AGL
Temperatures Readings
Current 14°C / 57°F
Dewpoint 7°C / 45°F
Humidity 63%
Altimeter 29.32" Hg
Pressure 993 hPa
Elevation 3
METAR ENSK 191950Z 19020KT 9999 VCSH FEW012 SCT025 14/07 Q0993
Observed Flight Rules
Sep-19 @ 19:50 UTC
(3 hours ago)
VFR
Wind Visibility
190° at 20 knots 10,000+ meters
Clouds
  • Few at 1,200' AGL
  • Scattered at 2,500' AGL
Temperature Dewpoint
14°C / 57°F 7°C / 45°F
Humidity Altimeter Pressure
63% 29.32" Hg 993 hPa